Terminal Aerodrome Forecast
Issued by NWS Des Moines, IA

Home | Current Version | Previous Version | Text Only | Print | Product List | Glossary On
Versions: 1 2 3 4 5 6 7 8 9 10 11 12 13 14 15 16 17 18 19 20 21 22 23
025
FTUS43 KDMX 252339
TAFDSM
TAF
KDSM 252339Z 2600/2624 13005KT P6SM OVC060
     FM260100 28005KT P6SM VCSH OVC070
     FM260500 31007KT P6SM OVC050
     FM260800 31010G16KT P6SM VCSH OVC008
     FM261200 31011G18KT P6SM OVC008
     FM261800 32013G17KT P6SM OVC015=

USA.gov is the U.S. government's official web portal to all federal, state and local government web resources and services.